sensor_id;sensor_type;location;lat;lon;timestamp;pressure;altitude;pressure_sealevel;temperature;humidity
34103;BME280;20381;54.498;18.206;2022-08-30T00:00:33;99845.80;;;15.07;100.00
34103;BME280;20381;54.498;18.206;2022-08-30T00:03:18;99842.72;;;15.00;100.00
34103;BME280;20381;54.498;18.206;2022-08-30T00:05:45;99840.37;;;14.95;100.00
34103;BME280;20381;54.498;18.206;2022-08-30T00:08:12;99850.17;;;14.93;100.00
34103;BME280;20381;54.498;18.206;2022-08-30T00:10:40;99842.16;;;14.95;100.00
34103;BME280;20381;54.498;18.206;2022-08-30T00:13:08;99852.80;;;14.93;100.00
34103;BME280;20381;54.498;18.206;2022-08-30T00:15:38;99849.21;;;14.94;100.00
34103;BME280;20381;54.498;18.206;2022-08-30T00:18:06;99846.95;;;14.95;100.00
34103;BME280;20381;54.498;18.206;2022-08-30T00:20:34;99850.17;;;14.93;100.00
34103;BME280;20381;54.498;18.206;2022-08-30T00:23:04;99849.77;;;14.92;100.00
34103;BME280;20381;54.498;18.206;2022-08-30T00:25:30;99851.09;;;14.92;100.00
34103;BME280;20381;54.498;18.206;2022-08-30T00:27:57;99858.05;;;14.93;100.00
34103;BME280;20381;54.498;18.206;2022-08-30T00:30:24;99854.11;;;14.93;100.00
34103;BME280;20381;54.498;18.206;2022-08-30T00:32:51;99856.73;;;14.93;100.00
34103;BME280;20381;54.498;18.206;2022-08-30T00:35:19;99856.27;;;14.94;100.00
34103;BME280;20381;54.498;18.206;2022-08-30T00:37:47;99859.37;;;14.93;100.00
34103;BME280;20381;54.498;18.206;2022-08-30T00:40:15;99855.98;;;14.91;100.00
34103;BME280;20381;54.498;18.206;2022-08-30T00:42:43;99861.08;;;14.87;100.00
34103;BME280;20381;54.498;18.206;2022-08-30T00:45:14;99874.77;;;14.85;100.00
34103;BME280;20381;54.498;18.206;2022-08-30T00:47:43;99869.13;;;14.84;100.00
34103;BME280;20381;54.498;18.206;2022-08-30T00:50:11;99863.98;;;14.83;100.00
34103;BME280;20381;54.498;18.206;2022-08-30T00:52:41;99872.90;;;14.80;100.00
34103;BME280;20381;54.498;18.206;2022-08-30T00:55:10;99868.59;;;14.79;100.00
34103;BME280;20381;54.498;18.206;2022-08-30T00:57:41;99869.44;;;14.80;100.00
34103;BME280;20381;54.498;18.206;2022-08-30T01:00:09;99876.56;;;14.77;100.00
34103;BME280;20381;54.498;18.206;2022-08-30T01:02:37;99873.09;;;14.77;100.00
34103;BME280;20381;54.498;18.206;2022-08-30T01:05:07;99870.66;;;14.74;100.00
34103;BME280;20381;54.498;18.206;2022-08-30T01:07:36;99880.77;;;14.73;100.00
34103;BME280;20381;54.498;18.206;2022-08-30T01:10:06;99877.61;;;14.68;100.00
34103;BME280;20381;54.498;18.206;2022-08-30T01:12:36;99884.19;;;14.68;100.00
34103;BME280;20381;54.498;18.206;2022-08-30T01:15:05;99886.81;;;14.68;100.00
34103;BME280;20381;54.498;18.206;2022-08-30T01:17:33;99888.57;;;14.67;100.00
34103;BME280;20381;54.498;18.206;2022-08-30T01:20:08;99887.00;;;14.65;100.00
34103;BME280;20381;54.498;18.206;2022-08-30T01:22:38;99880.98;;;14.63;100.00
34103;BME280;20381;54.498;18.206;2022-08-30T01:25:22;99888.48;;;14.62;100.00
34103;BME280;20381;54.498;18.206;2022-08-30T01:27:57;99886.44;;;14.60;100.00
34103;BME280;20381;54.498;18.206;2022-08-30T01:30:28;99890.38;;;14.60;100.00
34103;BME280;20381;54.498;18.206;2022-08-30T01:33:01;99885.20;;;14.58;100.00
34103;BME280;20381;54.498;18.206;2022-08-30T01:35:31;99884.00;;;14.57;100.00
34103;BME280;20381;54.498;18.206;2022-08-30T01:38:01;99888.86;;;14.55;100.00
34103;BME280;20381;54.498;18.206;2022-08-30T01:40:28;99888.50;;;14.54;100.00
34103;BME280;20381;54.498;18.206;2022-08-30T01:42:55;99889.57;;;14.50;100.00
34103;BME280;20381;54.498;18.206;2022-08-30T01:45:22;99883.95;;;14.49;100.00
34103;BME280;20381;54.498;18.206;2022-08-30T01:47:48;99888.45;;;14.47;100.00
34103;BME280;20381;54.498;18.206;2022-08-30T01:50:15;99888.64;;;14.44;100.00
34103;BME280;20381;54.498;18.206;2022-08-30T01:52:42;99886.95;;;14.43;100.00
34103;BME280;20381;54.498;18.206;2022-08-30T01:55:09;99885.64;;;14.43;100.00
34103;BME280;20381;54.498;18.206;2022-08-30T01:57:36;99886.20;;;14.41;100.00
34103;BME280;20381;54.498;18.206;2022-08-30T02:00:07;99882.81;;;14.39;100.00
34103;BME280;20381;54.498;18.206;2022-08-30T02:02:33;99888.65;;;14.37;100.00
34103;BME280;20381;54.498;18.206;2022-08-30T02:05:00;99888.25;;;14.36;100.00
34103;BME280;20381;54.498;18.206;2022-08-30T02:07:27;99877.94;;;14.33;100.00
34103;BME280;20381;54.498;18.206;2022-08-30T02:09:54;99887.52;;;14.34;100.00
34103;BME280;20381;54.498;18.206;2022-08-30T02:12:21;99887.67;;;14.31;100.00
34103;BME280;20381;54.498;18.206;2022-08-30T02:14:48;99888.81;;;14.27;100.00
34103;BME280;20381;54.498;18.206;2022-08-30T02:17:15;99885.06;;;14.24;100.00
34103;BME280;20381;54.498;18.206;2022-08-30T02:19:42;99893.31;;;14.18;100.00
34103;BME280;20381;54.498;18.206;2022-08-30T02:22:09;99898.16;;;14.17;100.00
34103;BME280;20381;54.498;18.206;2022-08-30T02:24:36;99902.69;;;14.15;100.00
34103;BME280;20381;54.498;18.206;2022-08-30T02:27:03;99905.47;;;14.04;100.00
34103;BME280;20381;54.498;18.206;2022-08-30T02:29:30;99896.24;;;13.97;100.00
34103;BME280;20381;54.498;18.206;2022-08-30T02:31:57;99895.69;;;13.92;100.00
34103;BME280;20381;54.498;18.206;2022-08-30T02:34:24;99890.59;;;13.89;100.00
34103;BME280;20381;54.498;18.206;2022-08-30T02:36:51;99894.92;;;13.90;100.00
34103;BME280;20381;54.498;18.206;2022-08-30T02:39:17;99901.48;;;13.90;100.00
34103;BME280;20381;54.498;18.206;2022-08-30T02:41:44;99883.77;;;13.86;100.00
34103;BME280;20381;54.498;18.206;2022-08-30T02:44:11;99895.29;;;13.84;100.00
34103;BME280;20381;54.498;18.206;2022-08-30T02:46:38;99910.27;;;13.82;100.00
34103;BME280;20381;54.498;18.206;2022-08-30T02:49:05;99900.14;;;13.83;100.00
34103;BME280;20381;54.498;18.206;2022-08-30T02:51:33;99907.64;;;13.82;100.00
34103;BME280;20381;54.498;18.206;2022-08-30T02:54:00;99895.47;;;13.81;100.00
34103;BME280;20381;54.498;18.206;2022-08-30T02:56:27;99903.34;;;13.81;100.00
34103;BME280;20381;54.498;18.206;2022-08-30T02:58:54;99896.67;;;13.82;100.00
34103;BME280;20381;54.498;18.206;2022-08-30T03:01:21;99904.48;;;13.84;100.00
34103;BME280;20381;54.498;18.206;2022-08-30T03:03:47;99896.20;;;13.83;100.00
34103;BME280;20381;54.498;18.206;2022-08-30T03:06:15;99897.52;;;13.83;100.00
34103;BME280;20381;54.498;18.206;2022-08-30T03:08:42;99906.16;;;13.85;100.00
34103;BME280;20381;54.498;18.206;2022-08-30T03:11:10;99909.91;;;13.81;100.00
34103;BME280;20381;54.498;18.206;2022-08-30T03:13:38;99913.66;;;13.84;100.00
34103;BME280;20381;54.498;18.206;2022-08-30T03:16:05;99913.84;;;13.81;100.00
34103;BME280;20381;54.498;18.206;2022-08-30T03:18:32;99920.19;;;13.77;100.00
34103;BME280;20381;54.498;18.206;2022-08-30T03:20:59;99916.06;;;13.73;100.00
34103;BME280;20381;54.498;18.206;2022-08-30T03:23:25;99910.81;;;13.73;100.00
34103;BME280;20381;54.498;18.206;2022-08-30T03:25:52;99909.94;;;13.72;100.00
34103;BME280;20381;54.498;18.206;2022-08-30T03:28:19;99915.47;;;13.68;100.00
34103;BME280;20381;54.498;18.206;2022-08-30T03:30:45;99919.77;;;13.69;100.00
34103;BME280;20381;54.498;18.206;2022-08-30T03:33:12;99908.91;;;13.68;100.00
34103;BME280;20381;54.498;18.206;2022-08-30T03:35:39;99912.19;;;13.64;100.00
34103;BME280;20381;54.498;18.206;2022-08-30T03:38:06;99904.38;;;13.62;100.00
34103;BME280;20381;54.498;18.206;2022-08-30T03:40:33;99913.56;;;13.62;100.00
34103;BME280;20381;54.498;18.206;2022-08-30T03:43:00;99905.50;;;13.58;100.00
34103;BME280;20381;54.498;18.206;2022-08-30T03:45:27;99910.16;;;13.53;100.00
34103;BME280;20381;54.498;18.206;2022-08-30T03:47:54;99897.59;;;13.51;100.00
34103;BME280;20381;54.498;18.206;2022-08-30T03:50:21;99896.34;;;13.50;100.00
34103;BME280;20381;54.498;18.206;2022-08-30T03:52:47;99904.52;;;13.52;100.00
34103;BME280;20381;54.498;18.206;2022-08-30T03:55:14;99908.85;;;13.53;100.00
34103;BME280;20381;54.498;18.206;2022-08-30T03:57:41;99911.84;;;13.54;100.00
34103;BME280;20381;54.498;18.206;2022-08-30T04:00:09;99910.23;;;13.52;100.00
34103;BME280;20381;54.498;18.206;2022-08-30T04:02:37;99913.33;;;13.51;100.00
34103;BME280;20381;54.498;18.206;2022-08-30T04:05:04;99910.16;;;13.53;100.00
34103;BME280;20381;54.498;18.206;2022-08-30T04:07:31;99912.78;;;13.53;100.00
34103;BME280;20381;54.498;18.206;2022-08-30T04:09:58;99914.29;;;13.57;100.00
34103;BME280;20381;54.498;18.206;2022-08-30T04:12:26;99908.86;;;13.60;100.00
34103;BME280;20381;54.498;18.206;2022-08-30T04:14:52;99920.49;;;13.63;100.00
34103;BME280;20381;54.498;18.206;2022-08-30T04:17:20;99923.52;;;13.64;100.00
34103;BME280;20381;54.498;18.206;2022-08-30T04:19:46;99923.52;;;13.64;100.00
34103;BME280;20381;54.498;18.206;2022-08-30T04:22:13;99926.73;;;13.70;100.00
34103;BME280;20381;54.498;18.206;2022-08-30T04:24:40;99922.22;;;13.72;100.00
34103;BME280;20381;54.498;18.206;2022-08-30T04:27:07;99927.69;;;13.76;100.00
34103;BME280;20381;54.498;18.206;2022-08-30T04:29:35;99929.73;;;13.78;100.00
34103;BME280;20381;54.498;18.206;2022-08-30T04:32:02;99933.13;;;13.80;100.00
34103;BME280;20381;54.498;18.206;2022-08-30T04:34:29;99943.45;;;13.83;100.00
34103;BME280;20381;54.498;18.206;2022-08-30T04:36:55;99942.72;;;13.88;100.00
34103;BME280;20381;54.498;18.206;2022-08-30T04:39:22;99944.25;;;13.92;100.00
34103;BME280;20381;54.498;18.206;2022-08-30T04:41:49;99939.27;;;13.95;100.00
34103;BME280;20381;54.498;18.206;2022-08-30T04:44:16;99945.02;;;14.01;100.00
34103;BME280;20381;54.498;18.206;2022-08-30T04:46:42;99943.89;;;14.05;100.00
34103;BME280;20381;54.498;18.206;2022-08-30T04:49:09;99943.56;;;14.12;100.00
34103;BME280;20381;54.498;18.206;2022-08-30T04:51:36;99942.36;;;14.17;100.00
34103;BME280;20381;54.498;18.206;2022-08-30T04:54:02;99943.59;;;14.26;100.00
34103;BME280;20381;54.498;18.206;2022-08-30T04:56:29;99940.05;;;14.34;100.00
34103;BME280;20381;54.498;18.206;2022-08-30T04:58:56;99942.09;;;14.36;100.00
34103;BME280;20381;54.498;18.206;2022-08-30T05:01:28;99942.13;;;14.43;100.00
34103;BME280;20381;54.498;18.206;2022-08-30T05:03:57;99943.91;;;14.50;100.00
34103;BME280;20381;54.498;18.206;2022-08-30T05:06:27;99946.88;;;14.60;100.00
34103;BME280;20381;54.498;18.206;2022-08-30T05:08:57;99950.61;;;14.70;100.00
34103;BME280;20381;54.498;18.206;2022-08-30T05:11:26;99949.89;;;14.82;100.00
34103;BME280;20381;54.498;18.206;2022-08-30T05:13:53;99956.44;;;14.89;100.00
34103;BME280;20381;54.498;18.206;2022-08-30T05:16:19;99955.33;;;14.93;100.00
34103;BME280;20381;54.498;18.206;2022-08-30T05:18:47;99961.31;;;14.95;100.00
34103;BME280;20381;54.498;18.206;2022-08-30T05:21:18;99962.27;;;14.94;100.00
34103;BME280;20381;54.498;18.206;2022-08-30T05:23:47;99963.11;;;14.95;100.00
34103;BME280;20381;54.498;18.206;2022-08-30T05:26:19;99971.11;;;14.93;100.00
34103;BME280;20381;54.498;18.206;2022-08-30T05:28:48;99963.41;;;14.90;100.00
34103;BME280;20381;54.498;18.206;2022-08-30T05:31:24;99965.93;;;14.92;100.00
34103;BME280;20381;54.498;18.206;2022-08-30T05:33:54;99971.85;;;14.88;100.00
34103;BME280;20381;54.498;18.206;2022-08-30T05:36:21;99979.81;;;14.87;100.00
34103;BME280;20381;54.498;18.206;2022-08-30T05:38:49;99981.05;;;14.88;100.00
34103;BME280;20381;54.498;18.206;2022-08-30T05:41:22;99987.63;;;14.88;100.00
34103;BME280;20381;54.498;18.206;2022-08-30T05:43:51;99986.88;;;14.93;100.00
34103;BME280;20381;54.498;18.206;2022-08-30T05:46:19;99985.73;;;14.97;100.00
34103;BME280;20381;54.498;18.206;2022-08-30T05:48:47;99984.44;;;15.05;100.00
34103;BME280;20381;54.498;18.206;2022-08-30T05:51:17;99980.30;;;15.08;100.00
34103;BME280;20381;54.498;18.206;2022-08-30T05:53:46;99977.48;;;15.18;100.00
34103;BME280;20381;54.498;18.206;2022-08-30T05:56:17;99980.54;;;15.32;100.00
34103;BME280;20381;54.498;18.206;2022-08-30T05:58:45;99980.06;;;15.47;100.00
34103;BME280;20381;54.498;18.206;2022-08-30T06:01:34;99977.20;;;15.64;100.00
34103;BME280;20381;54.498;18.206;2022-08-30T06:04:00;99987.31;;;15.84;100.00
34103;BME280;20381;54.498;18.206;2022-08-30T06:06:29;99986.67;;;16.08;100.00
34103;BME280;20381;54.498;18.206;2022-08-30T06:08:57;99986.88;;;16.38;100.00
34103;BME280;20381;54.498;18.206;2022-08-30T06:11:25;99990.36;;;16.96;100.00
34103;BME280;20381;54.498;18.206;2022-08-30T06:13:54;99985.48;;;17.29;100.00
34103;BME280;20381;54.498;18.206;2022-08-30T06:16:24;99989.20;;;17.50;100.00
34103;BME280;20381;54.498;18.206;2022-08-30T06:18:51;99997.34;;;17.47;98.66
34103;BME280;20381;54.498;18.206;2022-08-30T06:21:32;100004.05;;;17.27;96.76
34103;BME280;20381;54.498;18.206;2022-08-30T06:23:57;100008.06;;;16.89;94.28
34103;BME280;20381;54.498;18.206;2022-08-30T06:26:24;99998.55;;;16.66;96.90
34103;BME280;20381;54.498;18.206;2022-08-30T06:28:52;99991.70;;;16.51;97.48
34103;BME280;20381;54.498;18.206;2022-08-30T06:31:20;100007.36;;;16.47;97.36
34103;BME280;20381;54.498;18.206;2022-08-30T06:33:48;100006.48;;;16.33;97.03
34103;BME280;20381;54.498;18.206;2022-08-30T06:36:21;100010.10;;;16.25;97.02
34103;BME280;20381;54.498;18.206;2022-08-30T06:38:52;100016.07;;;16.34;98.10
34103;BME280;20381;54.498;18.206;2022-08-30T06:41:22;100018.68;;;16.42;96.47
34103;BME280;20381;54.498;18.206;2022-08-30T06:43:53;100018.14;;;16.37;95.79
34103;BME280;20381;54.498;18.206;2022-08-30T06:46:23;100022.52;;;16.23;95.71
34103;BME280;20381;54.498;18.206;2022-08-30T06:48:54;100023.14;;;16.14;95.07
34103;BME280;20381;54.498;18.206;2022-08-30T06:51:27;100024.52;;;15.93;95.89
34103;BME280;20381;54.498;18.206;2022-08-30T06:53:55;100023.45;;;15.68;94.77
34103;BME280;20381;54.498;18.206;2022-08-30T06:56:23;100029.50;;;15.41;95.08
34103;BME280;20381;54.498;18.206;2022-08-30T06:58:51;100028.58;;;15.21;94.27
34103;BME280;20381;54.498;18.206;2022-08-30T07:01:22;100029.12;;;15.12;95.64
34103;BME280;20381;54.498;18.206;2022-08-30T07:03:52;100031.77;;;15.05;95.57
34103;BME280;20381;54.498;18.206;2022-08-30T07:06:20;100026.97;;;14.97;96.02
34103;BME280;20381;54.498;18.206;2022-08-30T07:08:47;100029.33;;;15.02;96.28
34103;BME280;20381;54.498;18.206;2022-08-30T07:11:24;100035.70;;;15.12;96.11
34103;BME280;20381;54.498;18.206;2022-08-30T07:13:59;100039.09;;;15.14;96.08
34103;BME280;20381;54.498;18.206;2022-08-30T07:16:27;100041.70;;;15.07;95.39
34103;BME280;20381;54.498;18.206;2022-08-30T07:18:54;100046.22;;;15.12;96.31
34103;BME280;20381;54.498;18.206;2022-08-30T07:21:31;100043.97;;;15.20;96.31
34103;BME280;20381;54.498;18.206;2022-08-30T07:23:58;100048.11;;;15.17;95.89
34103;BME280;20381;54.498;18.206;2022-08-30T07:26:34;100039.85;;;15.16;95.92
34103;BME280;20381;54.498;18.206;2022-08-30T07:29:03;100044.91;;;15.26;96.13
34103;BME280;20381;54.498;18.206;2022-08-30T07:31:30;100049.61;;;15.28;95.91
34103;BME280;20381;54.498;18.206;2022-08-30T07:33:59;100054.31;;;15.30;95.61
34103;BME280;20381;54.498;18.206;2022-08-30T07:36:25;100055.27;;;15.29;95.53
34103;BME280;20381;54.498;18.206;2022-08-30T07:38:52;100061.08;;;15.27;95.96
34103;BME280;20381;54.498;18.206;2022-08-30T07:41:24;100062.95;;;15.25;95.44
34103;BME280;20381;54.498;18.206;2022-08-30T07:43:55;100061.47;;;15.21;95.58
34103;BME280;20381;54.498;18.206;2022-08-30T07:46:23;100072.83;;;15.21;96.05
34103;BME280;20381;54.498;18.206;2022-08-30T07:48:51;100072.91;;;15.20;95.91
34103;BME280;20381;54.498;18.206;2022-08-30T07:51:23;100058.16;;;15.17;96.15
34103;BME280;20381;54.498;18.206;2022-08-30T07:53:50;100069.36;;;15.21;96.11
34103;BME280;20381;54.498;18.206;2022-08-30T07:56:17;100070.08;;;15.23;96.31
34103;BME280;20381;54.498;18.206;2022-08-30T07:58:44;100065.67;;;15.31;96.56
34103;BME280;20381;54.498;18.206;2022-08-30T08:01:12;100065.77;;;15.36;96.70
34103;BME280;20381;54.498;18.206;2022-08-30T08:03:40;100069.16;;;15.38;96.24
34103;BME280;20381;54.498;18.206;2022-08-30T08:06:10;100067.84;;;15.38;96.24
34103;BME280;20381;54.498;18.206;2022-08-30T08:08:39;100071.88;;;15.37;96.31
34103;BME280;20381;54.498;18.206;2022-08-30T08:11:13;100066.61;;;15.37;96.57
34103;BME280;20381;54.498;18.206;2022-08-30T08:13:43;100066.34;;;15.41;96.48
34103;BME280;20381;54.498;18.206;2022-08-30T08:16:10;100068.59;;;15.33;96.20
34103;BME280;20381;54.498;18.206;2022-08-30T08:18:37;100072.73;;;15.30;96.38
34103;BME280;20381;54.498;18.206;2022-08-30T08:21:06;100074.03;;;15.23;96.36
34103;BME280;20381;54.498;18.206;2022-08-30T08:23:34;100081.92;;;15.23;96.63
34103;BME280;20381;54.498;18.206;2022-08-30T08:26:02;100082.70;;;15.18;96.52
34103;BME280;20381;54.498;18.206;2022-08-30T08:28:28;100086.41;;;15.07;96.71
34103;BME280;20381;54.498;18.206;2022-08-30T08:30:55;100089.78;;;14.94;97.41
34103;BME280;20381;54.498;18.206;2022-08-30T08:33:22;100088.84;;;14.88;97.93
34103;BME280;20381;54.498;18.206;2022-08-30T08:35:49;100084.53;;;14.94;98.02
34103;BME280;20381;54.498;18.206;2022-08-30T08:38:16;100089.60;;;14.97;97.75
34103;BME280;20381;54.498;18.206;2022-08-30T08:43:16;100096.38;;;15.09;97.63
34103;BME280;20381;54.498;18.206;2022-08-30T08:48:41;100099.01;;;15.09;97.83
34103;BME280;20381;54.498;18.206;2022-08-30T08:51:13;100105.80;;;15.13;98.06
34103;BME280;20381;54.498;18.206;2022-08-30T08:56:59;100110.30;;;15.25;98.31
34103;BME280;20381;54.498;18.206;2022-08-30T08:59:26;100112.75;;;15.28;98.03
34103;BME280;20381;54.498;18.206;2022-08-30T09:01:57;100106.38;;;15.32;98.39
34103;BME280;20381;54.498;18.206;2022-08-30T09:04:28;100105.23;;;15.51;99.02
34103;BME280;20381;54.498;18.206;2022-08-30T09:09:36;100115.59;;;15.68;97.96
34103;BME280;20381;54.498;18.206;2022-08-30T09:12:07;100114.83;;;15.66;97.73
34103;BME280;20381;54.498;18.206;2022-08-30T09:14:39;100106.77;;;15.69;97.79
34103;BME280;20381;54.498;18.206;2022-08-30T09:17:10;100112.95;;;15.68;97.91
34103;BME280;20381;54.498;18.206;2022-08-30T09:19:42;100118.06;;;15.71;98.13
34103;BME280;20381;54.498;18.206;2022-08-30T09:22:18;100117.66;;;15.63;97.42
34103;BME280;20381;54.498;18.206;2022-08-30T09:27:46;100123.20;;;15.44;97.80
34103;BME280;20381;54.498;18.206;2022-08-30T09:30:20;100129.38;;;15.43;97.94
34103;BME280;20381;54.498;18.206;2022-08-30T09:32:59;100127.62;;;15.43;98.24
34103;BME280;20381;54.498;18.206;2022-08-30T09:35:38;100125.53;;;15.49;98.38
34103;BME280;20381;54.498;18.206;2022-08-30T09:38:31;100125.83;;;15.58;98.47
34103;BME280;20381;54.498;18.206;2022-08-30T09:40:51;100129.75;;;15.65;98.59
34103;BME280;20381;54.498;18.206;2022-08-30T09:43:23;100130.92;;;15.83;98.55
34103;BME280;20381;54.498;18.206;2022-08-30T09:51:20;100129.27;;;16.02;98.57
34103;BME280;20381;54.498;18.206;2022-08-30T09:54:22;100133.22;;;16.09;98.09
34103;BME280;20381;54.498;18.206;2022-08-30T09:56:56;100126.59;;;16.23;98.23
34103;BME280;20381;54.498;18.206;2022-08-30T09:59:46;100126.59;;;16.23;97.75
34103;BME280;20381;54.498;18.206;2022-08-30T10:05:34;100136.38;;;16.28;97.36
34103;BME280;20381;54.498;18.206;2022-08-30T10:11:30;100136.09;;;16.19;97.46
34103;BME280;20381;54.498;18.206;2022-08-30T10:16:29;100136.13;;;16.11;97.30
34103;BME280;20381;54.498;18.206;2022-08-30T10:19:12;100136.58;;;16.18;97.47
34103;BME280;20381;54.498;18.206;2022-08-30T10:21:51;100140.16;;;16.17;96.57
34103;BME280;20381;54.498;18.206;2022-08-30T10:24:25;100137.73;;;16.07;96.64
34103;BME280;20381;54.498;18.206;2022-08-30T10:26:59;100139.61;;;16.19;97.38
34103;BME280;20381;54.498;18.206;2022-08-30T10:29:56;100138.04;;;16.37;97.47
34103;BME280;20381;54.498;18.206;2022-08-30T10:35:19;100142.52;;;16.69;97.14
34103;BME280;20381;54.498;18.206;2022-08-30T10:38:02;100149.75;;;16.80;95.56
34103;BME280;20381;54.498;18.206;2022-08-30T10:40:34;100149.17;;;16.74;95.12
34103;BME280;20381;54.498;18.206;2022-08-30T10:46:15;100149.16;;;17.34;96.08
34103;BME280;20381;54.498;18.206;2022-08-30T10:49:01;100144.17;;;17.55;95.10
34103;BME280;20381;54.498;18.206;2022-08-30T10:51:39;100153.29;;;17.70;93.76
34103;BME280;20381;54.498;18.206;2022-08-30T10:54:36;100155.72;;;17.73;93.71
34103;BME280;20381;54.498;18.206;2022-08-30T10:57:03;100160.41;;;17.82;94.27
34103;BME280;20381;54.498;18.206;2022-08-30T10:59:31;100158.05;;;17.77;92.53
34103;BME280;20381;54.498;18.206;2022-08-30T11:13:35;100162.27;;;17.67;91.87
34103;BME280;20381;54.498;18.206;2022-08-30T11:16:05;100160.20;;;17.78;91.07
34103;BME280;20381;54.498;18.206;2022-08-30T11:26:49;100164.81;;;17.68;88.46
34103;BME280;20381;54.498;18.206;2022-08-30T11:29:35;100174.32;;;17.58;87.09
34103;BME280;20381;54.498;18.206;2022-08-30T11:37:40;100179.83;;;17.81;89.33
34103;BME280;20381;54.498;18.206;2022-08-30T11:42:54;100182.47;;;17.81;89.62
34103;BME280;20381;54.498;18.206;2022-08-30T11:47:58;100177.16;;;18.43;89.63
34103;BME280;20381;54.498;18.206;2022-08-30T11:50:34;100172.06;;;18.77;90.50
34103;BME280;20381;54.498;18.206;2022-08-30T11:53:54;100165.80;;;19.08;90.15
34103;BME280;20381;54.498;18.206;2022-08-30T11:56:30;100160.03;;;19.14;88.59
34103;BME280;20381;54.498;18.206;2022-08-30T12:01:49;100158.87;;;18.88;86.09
34103;BME280;20381;54.498;18.206;2022-08-30T12:06:55;100164.71;;;18.75;85.88
34103;BME280;20381;54.498;18.206;2022-08-30T12:12:06;100164.99;;;18.83;85.93
34103;BME280;20381;54.498;18.206;2022-08-30T12:14:55;100163.89;;;18.62;83.70
34103;BME280;20381;54.498;18.206;2022-08-30T12:17:47;100165.19;;;18.56;85.22
34103;BME280;20381;54.498;18.206;2022-08-30T12:20:47;100165.67;;;18.55;85.06
34103;BME280;20381;54.498;18.206;2022-08-30T12:23:41;100173.00;;;18.33;84.17
34103;BME280;20381;54.498;18.206;2022-08-30T12:26:29;100165.27;;;18.25;85.08
34103;BME280;20381;54.498;18.206;2022-08-30T12:29:19;100161.36;;;18.36;86.33
34103;BME280;20381;54.498;18.206;2022-08-30T12:32:02;100171.75;;;18.69;85.02
34103;BME280;20381;54.498;18.206;2022-08-30T12:37:22;100157.89;;;19.19;85.95
34103;BME280;20381;54.498;18.206;2022-08-30T12:40:23;100159.95;;;19.43;84.73
34103;BME280;20381;54.498;18.206;2022-08-30T12:42:40;100163.20;;;19.30;82.42
34103;BME280;20381;54.498;18.206;2022-08-30T12:45:13;100163.77;;;19.17;80.89
34103;BME280;20381;54.498;18.206;2022-08-30T12:50:27;100172.48;;;18.95;78.78
34103;BME280;20381;54.498;18.206;2022-08-30T12:55:34;100169.93;;;18.82;81.34
34103;BME280;20381;54.498;18.206;2022-08-30T12:58:10;100173.97;;;18.75;82.32
34103;BME280;20381;54.498;18.206;2022-08-30T13:00:41;100170.05;;;18.68;77.70
34103;BME280;20381;54.498;18.206;2022-08-30T13:03:28;100169.77;;;18.60;80.72
34103;BME280;20381;54.498;18.206;2022-08-30T13:06:00;100171.34;;;18.62;80.25
34103;BME280;20381;54.498;18.206;2022-08-30T13:13:54;100163.63;;;18.29;80.04
34103;BME280;20381;54.498;18.206;2022-08-30T13:16:34;100172.89;;;18.17;78.73
34103;BME280;20381;54.498;18.206;2022-08-30T13:19:33;100171.06;;;18.30;80.88
34103;BME280;20381;54.498;18.206;2022-08-30T13:22:02;100167.23;;;18.34;79.02
34103;BME280;20381;54.498;18.206;2022-08-30T13:24:29;100170.09;;;18.31;77.54
34103;BME280;20381;54.498;18.206;2022-08-30T13:27:02;100174.87;;;18.26;77.24
34103;BME280;20381;54.498;18.206;2022-08-30T13:29:36;100171.81;;;18.32;78.18
34103;BME280;20381;54.498;18.206;2022-08-30T13:32:03;100177.28;;;18.47;79.20
34103;BME280;20381;54.498;18.206;2022-08-30T13:34:35;100174.34;;;18.58;77.74
34103;BME280;20381;54.498;18.206;2022-08-30T13:37:03;100171.23;;;18.40;76.58
34103;BME280;20381;54.498;18.206;2022-08-30T13:39:30;100168.33;;;18.37;77.12
34103;BME280;20381;54.498;18.206;2022-08-30T13:41:57;100169.39;;;18.29;75.62
34103;BME280;20381;54.498;18.206;2022-08-30T13:44:24;100171.81;;;18.32;75.58
34103;BME280;20381;54.498;18.206;2022-08-30T13:46:53;100165.36;;;18.42;76.90
34103;BME280;20381;54.498;18.206;2022-08-30T13:49:29;100168.16;;;18.46;77.27
34103;BME280;20381;54.498;18.206;2022-08-30T13:51:57;100166.06;;;18.38;76.40
34103;BME280;20381;54.498;18.206;2022-08-30T13:54:24;100167.84;;;18.32;75.85
34103;BME280;20381;54.498;18.206;2022-08-30T13:56:52;100167.09;;;18.11;75.31
34103;BME280;20381;54.498;18.206;2022-08-30T13:59:21;100174.52;;;18.06;75.87
34103;BME280;20381;54.498;18.206;2022-08-30T14:01:52;100182.55;;;17.92;74.70
34103;BME280;20381;54.498;18.206;2022-08-30T14:04:19;100172.73;;;17.94;75.90
34103;BME280;20381;54.498;18.206;2022-08-30T14:06:46;100172.54;;;18.16;76.60
34103;BME280;20381;54.498;18.206;2022-08-30T14:09:13;100167.55;;;18.24;75.42
34103;BME280;20381;54.498;18.206;2022-08-30T14:11:40;100165.97;;;18.45;75.59
34103;BME280;20381;54.498;18.206;2022-08-30T14:14:07;100160.84;;;18.49;71.15
34103;BME280;20381;54.498;18.206;2022-08-30T14:16:40;100161.30;;;18.73;75.65
34103;BME280;20381;54.498;18.206;2022-08-30T14:19:09;100163.08;;;18.67;72.31
34103;BME280;20381;54.498;18.206;2022-08-30T14:21:37;100167.51;;;18.61;72.52
34103;BME280;20381;54.498;18.206;2022-08-30T14:24:04;100161.83;;;18.60;71.73